sensor_id;sensor_type;location;lat;lon;timestamp;P1;durP1;ratioP1;P2;durP2;ratioP2
22705;SDS011;11520;51.198;4.468;2023-04-06T00:02:07;29.15;;;16.30;;
22705;SDS011;11520;51.198;4.468;2023-04-06T00:04:33;30.92;;;16.23;;
22705;SDS011;11520;51.198;4.468;2023-04-06T00:06:58;29.17;;;15.70;;
22705;SDS011;11520;51.198;4.468;2023-04-06T00:09:24;27.75;;;15.65;;
22705;SDS011;11520;51.198;4.468;2023-04-06T00:11:50;26.50;;;14.82;;
22705;SDS011;11520;51.198;4.468;2023-04-06T00:14:15;27.92;;;14.82;;
22705;SDS011;11520;51.198;4.468;2023-04-06T00:16:42;31.27;;;15.43;;
22705;SDS011;11520;51.198;4.468;2023-04-06T00:19:08;28.33;;;15.85;;
22705;SDS011;11520;51.198;4.468;2023-04-06T00:21:34;33.53;;;16.05;;
22705;SDS011;11520;51.198;4.468;2023-04-06T00:24:00;31.25;;;17.25;;
22705;SDS011;11520;51.198;4.468;2023-04-06T00:26:26;30.08;;;16.17;;
22705;SDS011;11520;51.198;4.468;2023-04-06T00:28:51;33.15;;;16.52;;
22705;SDS011;11520;51.198;4.468;2023-04-06T00:31:17;30.27;;;16.10;;
22705;SDS011;11520;51.198;4.468;2023-04-06T00:33:43;26.92;;;15.63;;
22705;SDS011;11520;51.198;4.468;2023-04-06T00:36:08;28.45;;;15.60;;
22705;SDS011;11520;51.198;4.468;2023-04-06T00:38:35;30.50;;;16.30;;
22705;SDS011;11520;51.198;4.468;2023-04-06T00:41:01;31.40;;;16.10;;
22705;SDS011;11520;51.198;4.468;2023-04-06T00:43:28;28.05;;;15.57;;
22705;SDS011;11520;51.198;4.468;2023-04-06T00:45:54;29.58;;;16.40;;
22705;SDS011;11520;51.198;4.468;2023-04-06T00:48:21;23.60;;;14.05;;
22705;SDS011;11520;51.198;4.468;2023-04-06T00:50:46;30.13;;;15.02;;
22705;SDS011;11520;51.198;4.468;2023-04-06T00:53:12;29.08;;;15.43;;
22705;SDS011;11520;51.198;4.468;2023-04-06T00:55:38;28.77;;;15.38;;
22705;SDS011;11520;51.198;4.468;2023-04-06T00:58:04;24.67;;;14.20;;
22705;SDS011;11520;51.198;4.468;2023-04-06T01:00:31;26.60;;;14.75;;
22705;SDS011;11520;51.198;4.468;2023-04-06T01:02:57;27.88;;;14.48;;
22705;SDS011;11520;51.198;4.468;2023-04-06T01:05:23;28.15;;;15.07;;
22705;SDS011;11520;51.198;4.468;2023-04-06T01:07:48;30.50;;;14.73;;
22705;SDS011;11520;51.198;4.468;2023-04-06T01:10:25;35.08;;;15.45;;
22705;SDS011;11520;51.198;4.468;2023-04-06T01:12:51;29.75;;;15.82;;
22705;SDS011;11520;51.198;4.468;2023-04-06T01:15:17;29.23;;;14.63;;
22705;SDS011;11520;51.198;4.468;2023-04-06T01:17:43;27.70;;;14.90;;
22705;SDS011;11520;51.198;4.468;2023-04-06T01:20:08;31.90;;;15.18;;
22705;SDS011;11520;51.198;4.468;2023-04-06T01:22:34;27.95;;;14.68;;
22705;SDS011;11520;51.198;4.468;2023-04-06T01:25:02;25.55;;;14.05;;
22705;SDS011;11520;51.198;4.468;2023-04-06T01:27:28;24.92;;;13.50;;
22705;SDS011;11520;51.198;4.468;2023-04-06T01:29:55;25.55;;;13.85;;
22705;SDS011;11520;51.198;4.468;2023-04-06T01:32:21;25.83;;;13.95;;
22705;SDS011;11520;51.198;4.468;2023-04-06T01:34:47;23.52;;;13.25;;
22705;SDS011;11520;51.198;4.468;2023-04-06T01:37:13;26.42;;;12.82;;
22705;SDS011;11520;51.198;4.468;2023-04-06T01:39:39;23.60;;;13.05;;
22705;SDS011;11520;51.198;4.468;2023-04-06T01:42:05;22.40;;;12.77;;
22705;SDS011;11520;51.198;4.468;2023-04-06T01:44:31;23.77;;;12.80;;
22705;SDS011;11520;51.198;4.468;2023-04-06T01:46:57;22.73;;;12.38;;
22705;SDS011;11520;51.198;4.468;2023-04-06T01:49:22;24.90;;;12.00;;
22705;SDS011;11520;51.198;4.468;2023-04-06T01:51:48;22.23;;;12.30;;
22705;SDS011;11520;51.198;4.468;2023-04-06T01:54:13;24.38;;;13.00;;
22705;SDS011;11520;51.198;4.468;2023-04-06T01:56:39;23.55;;;12.82;;
22705;SDS011;11520;51.198;4.468;2023-04-06T01:59:06;20.60;;;11.70;;
22705;SDS011;11520;51.198;4.468;2023-04-06T02:01:32;21.90;;;12.07;;
22705;SDS011;11520;51.198;4.468;2023-04-06T02:03:57;21.60;;;11.23;;
22705;SDS011;11520;51.198;4.468;2023-04-06T02:06:23;22.95;;;12.35;;
22705;SDS011;11520;51.198;4.468;2023-04-06T02:08:49;22.63;;;12.10;;
22705;SDS011;11520;51.198;4.468;2023-04-06T02:11:15;21.30;;;12.02;;
22705;SDS011;11520;51.198;4.468;2023-04-06T02:13:41;22.55;;;11.52;;
22705;SDS011;11520;51.198;4.468;2023-04-06T02:16:07;21.45;;;12.68;;
22705;SDS011;11520;51.198;4.468;2023-04-06T02:18:32;20.13;;;11.90;;
22705;SDS011;11520;51.198;4.468;2023-04-06T02:21:00;23.60;;;12.45;;
22705;SDS011;11520;51.198;4.468;2023-04-06T02:23:28;22.27;;;12.27;;
22705;SDS011;11520;51.198;4.468;2023-04-06T02:25:53;25.90;;;13.05;;
22705;SDS011;11520;51.198;4.468;2023-04-06T02:28:21;22.20;;;12.65;;
22705;SDS011;11520;51.198;4.468;2023-04-06T02:30:47;24.02;;;12.00;;
22705;SDS011;11520;51.198;4.468;2023-04-06T02:33:12;23.30;;;11.63;;
22705;SDS011;11520;51.198;4.468;2023-04-06T02:35:38;25.25;;;12.50;;
22705;SDS011;11520;51.198;4.468;2023-04-06T02:38:03;23.15;;;12.35;;
22705;SDS011;11520;51.198;4.468;2023-04-06T02:40:29;27.52;;;13.18;;
22705;SDS011;11520;51.198;4.468;2023-04-06T02:42:55;22.83;;;13.13;;
22705;SDS011;11520;51.198;4.468;2023-04-06T02:45:20;23.90;;;12.57;;
22705;SDS011;11520;51.198;4.468;2023-04-06T02:47:46;24.13;;;13.07;;
22705;SDS011;11520;51.198;4.468;2023-04-06T02:50:11;23.90;;;11.90;;
22705;SDS011;11520;51.198;4.468;2023-04-06T02:52:37;25.00;;;12.32;;
22705;SDS011;11520;51.198;4.468;2023-04-06T02:55:03;21.48;;;11.98;;
22705;SDS011;11520;51.198;4.468;2023-04-06T02:57:29;23.90;;;12.73;;
22705;SDS011;11520;51.198;4.468;2023-04-06T02:59:55;20.75;;;11.48;;
22705;SDS011;11520;51.198;4.468;2023-04-06T03:02:20;23.30;;;12.50;;
22705;SDS011;11520;51.198;4.468;2023-04-06T03:04:50;23.52;;;11.88;;
22705;SDS011;11520;51.198;4.468;2023-04-06T03:07:15;22.45;;;12.23;;
22705;SDS011;11520;51.198;4.468;2023-04-06T03:09:41;25.40;;;13.23;;
22705;SDS011;11520;51.198;4.468;2023-04-06T03:12:07;25.50;;;12.98;;
22705;SDS011;11520;51.198;4.468;2023-04-06T03:14:33;24.30;;;12.90;;
22705;SDS011;11520;51.198;4.468;2023-04-06T03:16:59;23.02;;;11.77;;
22705;SDS011;11520;51.198;4.468;2023-04-06T03:19:25;22.73;;;12.60;;
22705;SDS011;11520;51.198;4.468;2023-04-06T03:21:51;23.55;;;12.55;;
22705;SDS011;11520;51.198;4.468;2023-04-06T03:24:16;25.60;;;12.68;;
22705;SDS011;11520;51.198;4.468;2023-04-06T03:26:42;23.42;;;12.93;;
22705;SDS011;11520;51.198;4.468;2023-04-06T03:29:08;22.58;;;12.40;;
22705;SDS011;11520;51.198;4.468;2023-04-06T03:31:33;19.42;;;11.43;;
22705;SDS011;11520;51.198;4.468;2023-04-06T03:33:59;23.38;;;12.18;;
22705;SDS011;11520;51.198;4.468;2023-04-06T03:36:25;23.35;;;11.95;;
22705;SDS011;11520;51.198;4.468;2023-04-06T03:38:51;26.83;;;13.27;;
22705;SDS011;11520;51.198;4.468;2023-04-06T03:41:18;25.80;;;13.40;;
22705;SDS011;11520;51.198;4.468;2023-04-06T03:43:44;24.58;;;12.60;;
22705;SDS011;11520;51.198;4.468;2023-04-06T03:46:10;24.58;;;12.65;;
22705;SDS011;11520;51.198;4.468;2023-04-06T03:48:37;19.38;;;11.48;;
22705;SDS011;11520;51.198;4.468;2023-04-06T03:51:03;25.52;;;13.05;;
22705;SDS011;11520;51.198;4.468;2023-04-06T03:53:29;24.15;;;12.05;;
22705;SDS011;11520;51.198;4.468;2023-04-06T03:55:55;23.95;;;12.13;;
22705;SDS011;11520;51.198;4.468;2023-04-06T03:58:20;22.48;;;11.88;;
22705;SDS011;11520;51.198;4.468;2023-04-06T04:00:46;21.13;;;12.77;;
22705;SDS011;11520;51.198;4.468;2023-04-06T04:03:11;23.08;;;12.65;;
22705;SDS011;11520;51.198;4.468;2023-04-06T04:05:37;23.88;;;12.13;;
22705;SDS011;11520;51.198;4.468;2023-04-06T04:08:03;21.15;;;11.35;;
22705;SDS011;11520;51.198;4.468;2023-04-06T04:10:28;20.60;;;11.27;;
22705;SDS011;11520;51.198;4.468;2023-04-06T04:12:55;25.10;;;13.07;;
22705;SDS011;11520;51.198;4.468;2023-04-06T04:15:22;22.08;;;11.85;;
22705;SDS011;11520;51.198;4.468;2023-04-06T04:17:48;21.65;;;11.82;;
22705;SDS011;11520;51.198;4.468;2023-04-06T04:20:16;23.23;;;11.90;;
22705;SDS011;11520;51.198;4.468;2023-04-06T04:22:43;23.08;;;11.98;;
22705;SDS011;11520;51.198;4.468;2023-04-06T04:25:09;19.58;;;11.63;;
22705;SDS011;11520;51.198;4.468;2023-04-06T04:27:35;19.33;;;11.15;;
22705;SDS011;11520;51.198;4.468;2023-04-06T04:30:02;24.10;;;12.48;;
22705;SDS011;11520;51.198;4.468;2023-04-06T04:32:28;21.70;;;11.27;;
22705;SDS011;11520;51.198;4.468;2023-04-06T04:34:53;23.77;;;12.13;;
22705;SDS011;11520;51.198;4.468;2023-04-06T04:37:19;23.65;;;11.82;;
22705;SDS011;11520;51.198;4.468;2023-04-06T04:39:46;21.15;;;12.73;;
22705;SDS011;11520;51.198;4.468;2023-04-06T04:42:11;28.27;;;13.32;;
22705;SDS011;11520;51.198;4.468;2023-04-06T04:44:37;24.20;;;12.40;;
22705;SDS011;11520;51.198;4.468;2023-04-06T04:47:03;20.60;;;11.82;;
22705;SDS011;11520;51.198;4.468;2023-04-06T04:49:28;22.90;;;12.07;;
22705;SDS011;11520;51.198;4.468;2023-04-06T04:51:54;24.17;;;11.80;;
22705;SDS011;11520;51.198;4.468;2023-04-06T04:54:20;19.65;;;11.85;;
22705;SDS011;11520;51.198;4.468;2023-04-06T04:56:45;22.15;;;12.27;;
22705;SDS011;11520;51.198;4.468;2023-04-06T04:59:11;24.40;;;12.52;;
22705;SDS011;11520;51.198;4.468;2023-04-06T05:01:39;24.20;;;12.80;;
22705;SDS011;11520;51.198;4.468;2023-04-06T05:04:06;19.75;;;11.82;;
22705;SDS011;11520;51.198;4.468;2023-04-06T05:06:32;22.45;;;12.23;;
22705;SDS011;11520;51.198;4.468;2023-04-06T05:08:57;28.00;;;12.38;;
22705;SDS011;11520;51.198;4.468;2023-04-06T05:11:23;22.60;;;12.75;;
22705;SDS011;11520;51.198;4.468;2023-04-06T05:13:50;22.67;;;12.23;;
22705;SDS011;11520;51.198;4.468;2023-04-06T05:16:16;24.45;;;13.18;;
22705;SDS011;11520;51.198;4.468;2023-04-06T05:18:42;24.83;;;13.35;;
22705;SDS011;11520;51.198;4.468;2023-04-06T05:21:10;21.90;;;12.30;;
22705;SDS011;11520;51.198;4.468;2023-04-06T05:23:36;20.98;;;12.02;;
22705;SDS011;11520;51.198;4.468;2023-04-06T05:26:02;25.40;;;12.52;;
22705;SDS011;11520;51.198;4.468;2023-04-06T05:28:27;23.75;;;13.23;;
22705;SDS011;11520;51.198;4.468;2023-04-06T05:30:53;23.15;;;13.25;;
22705;SDS011;11520;51.198;4.468;2023-04-06T05:33:19;25.30;;;13.07;;
22705;SDS011;11520;51.198;4.468;2023-04-06T05:35:45;21.70;;;12.18;;
22705;SDS011;11520;51.198;4.468;2023-04-06T05:38:10;26.27;;;13.73;;
22705;SDS011;11520;51.198;4.468;2023-04-06T05:40:36;22.65;;;13.43;;
22705;SDS011;11520;51.198;4.468;2023-04-06T05:43:03;23.73;;;12.98;;
22705;SDS011;11520;51.198;4.468;2023-04-06T05:45:28;22.05;;;12.32;;
22705;SDS011;11520;51.198;4.468;2023-04-06T05:47:54;22.52;;;11.93;;
22705;SDS011;11520;51.198;4.468;2023-04-06T05:50:20;22.38;;;12.80;;
22705;SDS011;11520;51.198;4.468;2023-04-06T05:52:47;25.42;;;13.25;;
22705;SDS011;11520;51.198;4.468;2023-04-06T05:55:13;25.27;;;13.50;;
22705;SDS011;11520;51.198;4.468;2023-04-06T05:57:38;25.60;;;14.13;;
22705;SDS011;11520;51.198;4.468;2023-04-06T06:00:05;22.13;;;12.27;;
22705;SDS011;11520;51.198;4.468;2023-04-06T06:02:33;23.52;;;12.98;;
22705;SDS011;11520;51.198;4.468;2023-04-06T06:04:59;23.77;;;13.90;;
22705;SDS011;11520;51.198;4.468;2023-04-06T06:07:26;23.90;;;12.65;;
22705;SDS011;11520;51.198;4.468;2023-04-06T06:09:51;28.05;;;13.43;;
22705;SDS011;11520;51.198;4.468;2023-04-06T06:12:17;26.10;;;13.18;;
22705;SDS011;11520;51.198;4.468;2023-04-06T06:14:44;23.30;;;12.93;;
22705;SDS011;11520;51.198;4.468;2023-04-06T06:17:11;27.40;;;13.52;;
22705;SDS011;11520;51.198;4.468;2023-04-06T06:19:37;27.92;;;14.05;;
22705;SDS011;11520;51.198;4.468;2023-04-06T06:22:03;33.58;;;15.00;;
22705;SDS011;11520;51.198;4.468;2023-04-06T06:24:30;29.50;;;16.23;;
22705;SDS011;11520;51.198;4.468;2023-04-06T06:26:56;32.88;;;17.60;;
22705;SDS011;11520;51.198;4.468;2023-04-06T06:29:22;32.80;;;17.90;;
22705;SDS011;11520;51.198;4.468;2023-04-06T06:31:48;32.17;;;17.40;;
22705;SDS011;11520;51.198;4.468;2023-04-06T06:34:14;32.97;;;18.00;;
22705;SDS011;11520;51.198;4.468;2023-04-06T06:36:40;32.60;;;17.48;;
22705;SDS011;11520;51.198;4.468;2023-04-06T06:39:07;35.08;;;18.88;;
22705;SDS011;11520;51.198;4.468;2023-04-06T06:41:34;35.67;;;19.17;;
22705;SDS011;11520;51.198;4.468;2023-04-06T06:44:00;33.78;;;18.50;;
22705;SDS011;11520;51.198;4.468;2023-04-06T06:46:26;32.47;;;18.77;;
22705;SDS011;11520;51.198;4.468;2023-04-06T06:48:51;33.50;;;18.25;;
22705;SDS011;11520;51.198;4.468;2023-04-06T06:51:17;33.28;;;19.38;;
22705;SDS011;11520;51.198;4.468;2023-04-06T06:53:43;31.52;;;18.55;;
22705;SDS011;11520;51.198;4.468;2023-04-06T06:56:08;37.03;;;20.05;;
22705;SDS011;11520;51.198;4.468;2023-04-06T06:58:34;51.35;;;19.63;;
22705;SDS011;11520;51.198;4.468;2023-04-06T07:01:00;40.10;;;19.67;;
22705;SDS011;11520;51.198;4.468;2023-04-06T07:03:25;42.60;;;19.08;;
22705;SDS011;11520;51.198;4.468;2023-04-06T07:05:51;42.58;;;20.08;;
22705;SDS011;11520;51.198;4.468;2023-04-06T07:08:20;35.17;;;20.05;;
22705;SDS011;11520;51.198;4.468;2023-04-06T07:10:47;38.70;;;18.13;;
22705;SDS011;11520;51.198;4.468;2023-04-06T07:13:14;40.03;;;19.65;;
22705;SDS011;11520;51.198;4.468;2023-04-06T07:18:13;31.80;;;18.40;;
22705;SDS011;11520;51.198;4.468;2023-04-06T07:20:39;30.02;;;17.15;;
22705;SDS011;11520;51.198;4.468;2023-04-06T07:23:05;32.03;;;17.90;;
22705;SDS011;11520;51.198;4.468;2023-04-06T07:25:31;27.80;;;17.08;;
22705;SDS011;11520;51.198;4.468;2023-04-06T07:27:56;30.98;;;17.30;;
22705;SDS011;11520;51.198;4.468;2023-04-06T07:30:22;35.97;;;18.60;;
22705;SDS011;11520;51.198;4.468;2023-04-06T07:32:50;35.60;;;18.98;;
22705;SDS011;11520;51.198;4.468;2023-04-06T07:35:16;27.48;;;17.05;;
22705;SDS011;11520;51.198;4.468;2023-04-06T07:37:42;29.85;;;17.40;;
22705;SDS011;11520;51.198;4.468;2023-04-06T07:40:08;27.40;;;15.48;;
22705;SDS011;11520;51.198;4.468;2023-04-06T07:42:34;25.92;;;15.80;;
22705;SDS011;11520;51.198;4.468;2023-04-06T07:45:00;25.95;;;15.35;;
22705;SDS011;11520;51.198;4.468;2023-04-06T07:47:27;27.25;;;15.00;;
22705;SDS011;11520;51.198;4.468;2023-04-06T07:49:54;28.75;;;14.27;;
22705;SDS011;11520;51.198;4.468;2023-04-06T07:52:23;26.67;;;14.88;;
22705;SDS011;11520;51.198;4.468;2023-04-06T07:54:49;28.15;;;14.20;;
22705;SDS011;11520;51.198;4.468;2023-04-06T07:57:14;24.88;;;14.45;;
22705;SDS011;11520;51.198;4.468;2023-04-06T07:59:40;22.13;;;13.20;;
22705;SDS011;11520;51.198;4.468;2023-04-06T08:02:06;22.10;;;13.48;;
22705;SDS011;11520;51.198;4.468;2023-04-06T08:04:32;21.73;;;12.63;;
22705;SDS011;11520;51.198;4.468;2023-04-06T08:06:57;22.52;;;13.32;;
22705;SDS011;11520;51.198;4.468;2023-04-06T08:09:23;18.80;;;12.02;;
22705;SDS011;11520;51.198;4.468;2023-04-06T08:11:50;20.35;;;12.18;;
22705;SDS011;11520;51.198;4.468;2023-04-06T08:14:15;23.08;;;12.50;;
22705;SDS011;11520;51.198;4.468;2023-04-06T08:16:42;19.30;;;10.80;;
22705;SDS011;11520;51.198;4.468;2023-04-06T08:19:07;20.67;;;12.10;;
22705;SDS011;11520;51.198;4.468;2023-04-06T08:21:40;21.45;;;11.80;;
22705;SDS011;11520;51.198;4.468;2023-04-06T08:24:06;20.35;;;11.73;;
22705;SDS011;11520;51.198;4.468;2023-04-06T08:26:31;23.92;;;12.10;;
22705;SDS011;11520;51.198;4.468;2023-04-06T08:28:57;20.33;;;11.50;;
22705;SDS011;11520;51.198;4.468;2023-04-06T08:31:23;18.63;;;11.77;;
22705;SDS011;11520;51.198;4.468;2023-04-06T08:33:48;18.13;;;10.63;;
22705;SDS011;11520;51.198;4.468;2023-04-06T08:36:14;18.73;;;11.07;;
22705;SDS011;11520;51.198;4.468;2023-04-06T08:38:40;19.20;;;11.02;;
22705;SDS011;11520;51.198;4.468;2023-04-06T08:41:11;17.88;;;11.00;;
22705;SDS011;11520;51.198;4.468;2023-04-06T08:46:24;17.45;;;10.43;;
22705;SDS011;11520;51.198;4.468;2023-04-06T08:49:00;18.02;;;10.15;;
22705;SDS011;11520;51.198;4.468;2023-04-06T08:51:29;22.35;;;10.45;;
22705;SDS011;11520;51.198;4.468;2023-04-06T08:53:58;22.15;;;11.18;;
22705;SDS011;11520;51.198;4.468;2023-04-06T08:56:25;18.50;;;10.13;;
22705;SDS011;11520;51.198;4.468;2023-04-06T08:58:52;13.80;;;9.23;;
22705;SDS011;11520;51.198;4.468;2023-04-06T09:01:26;16.67;;;9.10;;
22705;SDS011;11520;51.198;4.468;2023-04-06T09:03:57;14.95;;;9.05;;
22705;SDS011;11520;51.198;4.468;2023-04-06T09:06:25;14.05;;;8.18;;
22705;SDS011;11520;51.198;4.468;2023-04-06T09:08:53;12.38;;;7.30;;
22705;SDS011;11520;51.198;4.468;2023-04-06T09:11:19;14.05;;;8.05;;
22705;SDS011;11520;51.198;4.468;2023-04-06T09:16:13;10.45;;;6.55;;
22705;SDS011;11520;51.198;4.468;2023-04-06T09:18:38;11.52;;;6.75;;
22705;SDS011;11520;51.198;4.468;2023-04-06T09:21:06;8.75;;;6.03;;
22705;SDS011;11520;51.198;4.468;2023-04-06T09:23:32;8.55;;;5.80;;
22705;SDS011;11520;51.198;4.468;2023-04-06T09:26:05;9.02;;;5.70;;
22705;SDS011;11520;51.198;4.468;2023-04-06T09:31:22;9.75;;;5.93;;
22705;SDS011;11520;51.198;4.468;2023-04-06T09:33:49;9.48;;;6.22;;
22705;SDS011;11520;51.198;4.468;2023-04-06T09:36:15;11.15;;;6.88;;
22705;SDS011;11520;51.198;4.468;2023-04-06T09:39:00;9.27;;;6.03;;
22705;SDS011;11520;51.198;4.468;2023-04-06T09:41:29;10.35;;;6.55;;
22705;SDS011;11520;51.198;4.468;2023-04-06T09:44:03;9.70;;;5.72;;
22705;SDS011;11520;51.198;4.468;2023-04-06T09:46:32;12.07;;;6.82;;
22705;SDS011;11520;51.198;4.468;2023-04-06T09:49:03;10.30;;;6.28;;
22705;SDS011;11520;51.198;4.468;2023-04-06T09:51:34;13.73;;;7.63;;
22705;SDS011;11520;51.198;4.468;2023-04-06T09:54:02;12.48;;;7.43;;
22705;SDS011;11520;51.198;4.468;2023-04-06T09:56:37;15.32;;;8.80;;
22705;SDS011;11520;51.198;4.468;2023-04-06T10:02:16;15.40;;;8.82;;
22705;SDS011;11520;51.198;4.468;2023-04-06T10:04:57;13.30;;;8.68;;
22705;SDS011;11520;51.198;4.468;2023-04-06T10:07:27;16.15;;;8.65;;
22705;SDS011;11520;51.198;4.468;2023-04-06T10:09:54;13.50;;;8.02;;
22705;SDS011;11520;51.198;4.468;2023-04-06T10:12:20;15.90;;;9.02;;
22705;SDS011;11520;51.198;4.468;2023-04-06T10:14:46;15.15;;;8.25;;
22705;SDS011;11520;51.198;4.468;2023-04-06T10:17:12;15.70;;;9.10;;
22705;SDS011;11520;51.198;4.468;2023-04-06T10:19:46;16.33;;;9.38;;
22705;SDS011;11520;51.198;4.468;2023-04-06T10:22:28;16.80;;;8.95;;
22705;SDS011;11520;51.198;4.468;2023-04-06T10:25:31;18.17;;;9.00;;
22705;SDS011;11520;51.198;4.468;2023-04-06T10:30:33;15.98;;;9.85;;
22705;SDS011;11520;51.198;4.468;2023-04-06T10:33:00;21.50;;;8.95;;
22705;SDS011;11520;51.198;4.468;2023-04-06T10:35:37;18.38;;;10.18;;
22705;SDS011;11520;51.198;4.468;2023-04-06T10:38:05;16.05;;;10.70;;
22705;SDS011;11520;51.198;4.468;2023-04-06T10:40:32;15.52;;;9.82;;
22705;SDS011;11520;51.198;4.468;2023-04-06T10:43:34;14.57;;;9.52;;
22705;SDS011;11520;51.198;4.468;2023-04-06T10:45:59;18.67;;;9.93;;
22705;SDS011;11520;51.198;4.468;2023-04-06T10:48:35;17.20;;;9.63;;
22705;SDS011;11520;51.198;4.468;2023-04-06T10:51:15;16.13;;;10.35;;
22705;SDS011;11520;51.198;4.468;2023-04-06T10:53:43;15.35;;;9.27;;
22705;SDS011;11520;51.198;4.468;2023-04-06T10:56:17;17.40;;;9.82;;
22705;SDS011;11520;51.198;4.468;2023-04-06T10:58:53;18.92;;;10.40;;
22705;SDS011;11520;51.198;4.468;2023-04-06T11:01:24;22.00;;;10.60;;
22705;SDS011;11520;51.198;4.468;2023-04-06T11:03:52;18.05;;;10.20;;
22705;SDS011;11520;51.198;4.468;2023-04-06T11:08:49;16.50;;;10.18;;
22705;SDS011;11520;51.198;4.468;2023-04-06T11:11:16;20.05;;;10.73;;
22705;SDS011;11520;51.198;4.468;2023-04-06T11:13:51;18.30;;;10.80;;
22705;SDS011;11520;51.198;4.468;2023-04-06T11:16:22;17.67;;;11.23;;
22705;SDS011;11520;51.198;4.468;2023-04-06T11:18:56;19.15;;;12.20;;
22705;SDS011;11520;51.198;4.468;2023-04-06T11:24:14;21.48;;;12.32;;
22705;SDS011;11520;51.198;4.468;2023-04-06T11:26:43;22.90;;;13.07;;
22705;SDS011;11520;51.198;4.468;2023-04-06T11:29:21;19.23;;;11.98;;
22705;SDS011;11520;51.198;4.468;2023-04-06T11:31:54;21.05;;;12.18;;
22705;SDS011;11520;51.198;4.468;2023-04-06T11:34:25;21.75;;;12.65;;
22705;SDS011;11520;51.198;4.468;2023-04-06T11:36:57;21.10;;;12.25;;
22705;SDS011;11520;51.198;4.468;2023-04-06T11:39:25;20.08;;;12.02;;
22705;SDS011;11520;51.198;4.468;2023-04-06T11:41:56;23.88;;;13.40;;
22705;SDS011;11520;51.198;4.468;2023-04-06T11:44:42;26.13;;;14.03;;
22705;SDS011;11520;51.198;4.468;2023-04-06T11:47:11;23.60;;;13.50;;
22705;SDS011;11520;51.198;4.468;2023-04-06T11:49:38;19.60;;;12.32;;
22705;SDS011;11520;51.198;4.468;2023-04-06T11:54:44;19.70;;;12.65;;
22705;SDS011;11520;51.198;4.468;2023-04-06T11:57:10;22.63;;;13.32;;
22705;SDS011;11520;51.198;4.468;2023-04-06T11:59:36;23.20;;;13.10;;
22705;SDS011;11520;51.198;4.468;2023-04-06T12:02:03;17.65;;;12.15;;
22705;SDS011;11520;51.198;4.468;2023-04-06T12:04:29;22.20;;;14.25;;
22705;SDS011;11520;51.198;4.468;2023-04-06T12:06:55;23.85;;;14.82;;
22705;SDS011;11520;51.198;4.468;2023-04-06T12:09:21;22.02;;;12.45;;
22705;SDS011;11520;51.198;4.468;2023-04-06T12:11:47;21.92;;;13.30;;
22705;SDS011;11520;51.198;4.468;2023-04-06T12:14:12;18.50;;;12.32;;
22705;SDS011;11520;51.198;4.468;2023-04-06T12:16:38;22.17;;;13.82;;
22705;SDS011;11520;51.198;4.468;2023-04-06T12:19:05;21.13;;;12.88;;
22705;SDS011;11520;51.198;4.468;2023-04-06T12:21:31;21.20;;;12.48;;
22705;SDS011;11520;51.198;4.468;2023-04-06T12:23:57;20.92;;;12.60;;
22705;SDS011;11520;51.198;4.468;2023-04-06T12:26:23;24.42;;;13.30;;
22705;SDS011;11520;51.198;4.468;2023-04-06T12:28:49;22.33;;;13.57;;
22705;SDS011;11520;51.198;4.468;2023-04-06T12:31:18;17.13;;;11.85;;
22705;SDS011;11520;51.198;4.468;2023-04-06T12:33:49;19.20;;;12.55;;
22705;SDS011;11520;51.198;4.468;2023-04-06T12:36:16;21.08;;;12.27;;
22705;SDS011;11520;51.198;4.468;2023-04-06T12:38:48;16.95;;;11.25;;
22705;SDS011;11520;51.198;4.468;2023-04-06T12:41:14;17.65;;;11.82;;
22705;SDS011;11520;51.198;4.468;2023-04-06T12:43:43;16.60;;;11.23;;
22705;SDS011;11520;51.198;4.468;2023-04-06T12:46:09;17.10;;;11.75;;
22705;SDS011;11520;51.198;4.468;2023-04-06T12:48:35;18.02;;;10.65;;
22705;SDS011;11520;51.198;4.468;2023-04-06T12:51:02;18.58;;;11.18;;
22705;SDS011;11520;51.198;4.468;2023-04-06T12:53:29;20.88;;;10.73;;
22705;SDS011;11520;51.198;4.468;2023-04-06T12:55:55;16.35;;;10.48;;
22705;SDS011;11520;51.198;4.468;2023-04-06T12:58:22;15.98;;;10.55;;
22705;SDS011;11520;51.198;4.468;2023-04-06T13:00:48;18.65;;;10.95;;
22705;SDS011;11520;51.198;4.468;2023-04-06T13:03:18;18.15;;;9.90;;
22705;SDS011;11520;51.198;4.468;2023-04-06T13:05:46;18.67;;;11.02;;
22705;SDS011;11520;51.198;4.468;2023-04-06T13:08:12;17.13;;;11.05;;
22705;SDS011;11520;51.198;4.468;2023-04-06T13:10:50;15.10;;;10.23;;
22705;SDS011;11520;51.198;4.468;2023-04-06T13:13:24;16.60;;;10.00;;
22705;SDS011;11520;51.198;4.468;2023-04-06T13:15:55;14.32;;;9.63;;
22705;SDS011;11520;51.198;4.468;2023-04-06T13:18:28;14.70;;;9.48;;
22705;SDS011;11520;51.198;4.468;2023-04-06T13:20:55;15.10;;;10.48;;
22705;SDS011;11520;51.198;4.468;2023-04-06T13:23:23;18.40;;;10.93;;
22705;SDS011;11520;51.198;4.468;2023-04-06T13:25:59;15.80;;;10.13;;
22705;SDS011;11520;51.198;4.468;2023-04-06T13:28:26;14.82;;;10.13;;
22705;SDS011;11520;51.198;4.468;2023-04-06T13:30:53;14.43;;;10.25;;
22705;SDS011;11520;51.198;4.468;2023-04-06T13:33:19;15.85;;;9.98;;
22705;SDS011;11520;51.198;4.468;2023-04-06T13:35:45;14.15;;;9.80;;
22705;SDS011;11520;51.198;4.468;2023-04-06T13:38:11;16.50;;;10.40;;
22705;SDS011;11520;51.198;4.468;2023-04-06T13:40:40;15.48;;;10.23;;
22705;SDS011;11520;51.198;4.468;2023-04-06T13:43:06;14.63;;;10.15;;
22705;SDS011;11520;51.198;4.468;2023-04-06T13:45:32;14.93;;;10.27;;
22705;SDS011;11520;51.198;4.468;2023-04-06T13:47:58;14.15;;;9.93;;
22705;SDS011;11520;51.198;4.468;2023-04-06T13:52:56;14.20;;;9.90;;
22705;SDS011;11520;51.198;4.468;2023-04-06T13:55:22;16.38;;;10.00;;
22705;SDS011;11520;51.198;4.468;2023-04-06T13:57:49;16.25;;;10.35;;
22705;SDS011;11520;51.198;4.468;2023-04-06T14:00:16;18.20;;;11.50;;
22705;SDS011;11520;51.198;4.468;2023-04-06T14:02:41;15.93;;;11.55;;
22705;SDS011;11520;51.198;4.468;2023-04-06T14:05:07;16.30;;;11.75;;
22705;SDS011;11520;51.198;4.468;2023-04-06T14:07:33;16.95;;;11.75;;
22705;SDS011;11520;51.198;4.468;2023-04-06T14:09:59;20.83;;;12.38;;
22705;SDS011;11520;51.198;4.468;2023-04-06T14:12:25;18.65;;;13.10;;
22705;SDS011;11520;51.198;4.468;2023-04-06T14:14:51;16.30;;;12.30;;
22705;SDS011;11520;51.198;4.468;2023-04-06T14:17:17;18.73;;;12.48;;
22705;SDS011;11520;51.198;4.468;2023-04-06T14:19:43;19.70;;;13.38;;
22705;SDS011;11520;51.198;4.468;2023-04-06T14:22:09;24.27;;;14.55;;
22705;SDS011;11520;51.198;4.468;2023-04-06T14:24:35;21.38;;;13.77;;
22705;SDS011;11520;51.198;4.468;2023-04-06T14:27:01;19.20;;;13.00;;
22705;SDS011;11520;51.198;4.468;2023-04-06T14:29:27;20.77;;;13.65;;
22705;SDS011;11520;51.198;4.468;2023-04-06T14:31:54;19.95;;;13.68;;
22705;SDS011;11520;51.198;4.468;2023-04-06T14:34:28;18.40;;;13.27;;
22705;SDS011;11520;51.198;4.468;2023-04-06T14:36:55;19.20;;;13.88;;
22705;SDS011;11520;51.198;4.468;2023-04-06T14:39:20;22.48;;;14.63;;
22705;SDS011;11520;51.198;4.468;2023-04-06T14:41:48;21.58;;;14.00;;
22705;SDS011;11520;51.198;4.468;2023-04-06T14:44:14;19.77;;;14.15;;
22705;SDS011;11520;51.198;4.468;2023-04-06T14:46:41;23.83;;;14.20;;
22705;SDS011;11520;51.198;4.468;2023-04-06T14:49:07;18.27;;;12.65;;
22705;SDS011;11520;51.198;4.468;2023-04-06T14:51:33;20.55;;;13.68;;